sensor_id;sensor_type;location;lat;lon;timestamp;P1;durP1;ratioP1;P2;durP2;ratioP2
1136;SDS011;557;48.466;7.950;2023-05-23T00:01:16;14.57;;;10.67;;
1136;SDS011;557;48.466;7.950;2023-05-23T00:04:05;14.67;;;12.23;;
1136;SDS011;557;48.466;7.950;2023-05-23T00:06:53;16.73;;;11.50;;
1136;SDS011;557;48.466;7.950;2023-05-23T00:09:40;15.80;;;11.47;;
1136;SDS011;557;48.466;7.950;2023-05-23T00:12:28;17.90;;;13.03;;
1136;SDS011;557;48.466;7.950;2023-05-23T00:15:15;16.40;;;11.60;;
1136;SDS011;557;48.466;7.950;2023-05-23T00:18:02;17.10;;;11.30;;
1136;SDS011;557;48.466;7.950;2023-05-23T00:20:55;14.97;;;11.80;;
1136;SDS011;557;48.466;7.950;2023-05-23T00:23:43;19.73;;;12.47;;
1136;SDS011;557;48.466;7.950;2023-05-23T00:26:31;16.77;;;11.40;;
1136;SDS011;557;48.466;7.950;2023-05-23T00:29:19;14.00;;;10.93;;
1136;SDS011;557;48.466;7.950;2023-05-23T00:32:07;20.40;;;13.23;;
1136;SDS011;557;48.466;7.950;2023-05-23T00:34:54;17.00;;;12.17;;
1136;SDS011;557;48.466;7.950;2023-05-23T00:37:43;16.03;;;12.90;;
1136;SDS011;557;48.466;7.950;2023-05-23T00:40:30;14.93;;;11.43;;
1136;SDS011;557;48.466;7.950;2023-05-23T00:43:17;17.03;;;12.80;;
1136;SDS011;557;48.466;7.950;2023-05-23T00:46:05;15.43;;;11.70;;
1136;SDS011;557;48.466;7.950;2023-05-23T00:48:55;13.53;;;10.90;;
1136;SDS011;557;48.466;7.950;2023-05-23T00:51:43;14.47;;;11.03;;
1136;SDS011;557;48.466;7.950;2023-05-23T00:54:32;16.83;;;13.17;;
1136;SDS011;557;48.466;7.950;2023-05-23T00:57:22;16.80;;;11.73;;
1136;SDS011;557;48.466;7.950;2023-05-23T01:00:11;16.43;;;11.40;;
1136;SDS011;557;48.466;7.950;2023-05-23T01:03:00;16.40;;;11.93;;
1136;SDS011;557;48.466;7.950;2023-05-23T01:05:47;17.63;;;13.20;;
1136;SDS011;557;48.466;7.950;2023-05-23T01:11:28;18.83;;;13.27;;
1136;SDS011;557;48.466;7.950;2023-05-23T01:14:26;17.37;;;12.13;;
1136;SDS011;557;48.466;7.950;2023-05-23T01:17:20;17.90;;;13.20;;
1136;SDS011;557;48.466;7.950;2023-05-23T01:20:15;15.40;;;12.77;;
1136;SDS011;557;48.466;7.950;2023-05-23T01:23:17;16.73;;;12.57;;
1136;SDS011;557;48.466;7.950;2023-05-23T01:26:26;16.70;;;12.50;;
1136;SDS011;557;48.466;7.950;2023-05-23T01:29:26;15.83;;;13.13;;
1136;SDS011;557;48.466;7.950;2023-05-23T01:32:17;14.83;;;12.27;;
1136;SDS011;557;48.466;7.950;2023-05-23T01:35:07;17.27;;;12.33;;
1136;SDS011;557;48.466;7.950;2023-05-23T01:37:56;16.43;;;12.80;;
1136;SDS011;557;48.466;7.950;2023-05-23T01:40:43;16.80;;;12.60;;
1136;SDS011;557;48.466;7.950;2023-05-23T01:43:31;14.97;;;12.07;;
1136;SDS011;557;48.466;7.950;2023-05-23T01:46:20;14.87;;;11.70;;
1136;SDS011;557;48.466;7.950;2023-05-23T01:49:09;15.60;;;11.80;;
1136;SDS011;557;48.466;7.950;2023-05-23T01:51:59;16.17;;;12.90;;
1136;SDS011;557;48.466;7.950;2023-05-23T01:54:49;15.67;;;12.27;;
1136;SDS011;557;48.466;7.950;2023-05-23T01:57:37;16.80;;;12.47;;
1136;SDS011;557;48.466;7.950;2023-05-23T02:00:25;19.20;;;13.33;;
1136;SDS011;557;48.466;7.950;2023-05-23T02:03:14;16.50;;;12.73;;
1136;SDS011;557;48.466;7.950;2023-05-23T02:06:02;16.20;;;12.47;;
1136;SDS011;557;48.466;7.950;2023-05-23T02:08:50;17.00;;;12.03;;
1136;SDS011;557;48.466;7.950;2023-05-23T02:11:37;19.10;;;12.50;;
1136;SDS011;557;48.466;7.950;2023-05-23T02:14:24;15.90;;;11.60;;
1136;SDS011;557;48.466;7.950;2023-05-23T02:17:12;16.43;;;11.87;;
1136;SDS011;557;48.466;7.950;2023-05-23T02:20:02;15.63;;;12.20;;
1136;SDS011;557;48.466;7.950;2023-05-23T02:22:51;20.40;;;13.33;;
1136;SDS011;557;48.466;7.950;2023-05-23T02:25:38;20.17;;;13.40;;
1136;SDS011;557;48.466;7.950;2023-05-23T02:28:25;21.60;;;13.87;;
1136;SDS011;557;48.466;7.950;2023-05-23T02:31:12;18.80;;;13.37;;
1136;SDS011;557;48.466;7.950;2023-05-23T02:34:01;20.27;;;15.13;;
1136;SDS011;557;48.466;7.950;2023-05-23T02:36:53;20.13;;;15.47;;
1136;SDS011;557;48.466;7.950;2023-05-23T02:39:41;18.90;;;14.27;;
1136;SDS011;557;48.466;7.950;2023-05-23T02:42:29;20.10;;;14.37;;
1136;SDS011;557;48.466;7.950;2023-05-23T02:45:16;19.20;;;14.20;;
1136;SDS011;557;48.466;7.950;2023-05-23T02:48:03;15.60;;;12.70;;
1136;SDS011;557;48.466;7.950;2023-05-23T02:50:53;18.57;;;14.70;;
1136;SDS011;557;48.466;7.950;2023-05-23T02:53:41;16.60;;;13.23;;
1136;SDS011;557;48.466;7.950;2023-05-23T02:56:29;19.83;;;14.00;;
1136;SDS011;557;48.466;7.950;2023-05-23T02:59:16;19.33;;;13.33;;
1136;SDS011;557;48.466;7.950;2023-05-23T03:02:04;17.10;;;13.30;;
1136;SDS011;557;48.466;7.950;2023-05-23T03:04:51;19.13;;;13.27;;
1136;SDS011;557;48.466;7.950;2023-05-23T03:07:40;19.50;;;12.90;;
1136;SDS011;557;48.466;7.950;2023-05-23T03:10:29;17.07;;;13.17;;
1136;SDS011;557;48.466;7.950;2023-05-23T03:13:17;17.17;;;13.30;;
1136;SDS011;557;48.466;7.950;2023-05-23T03:16:04;17.80;;;13.30;;
1136;SDS011;557;48.466;7.950;2023-05-23T03:18:52;16.60;;;12.57;;
1136;SDS011;557;48.466;7.950;2023-05-23T03:21:39;15.63;;;12.30;;
1136;SDS011;557;48.466;7.950;2023-05-23T03:24:26;16.67;;;12.23;;
1136;SDS011;557;48.466;7.950;2023-05-23T03:27:19;19.50;;;14.13;;
1136;SDS011;557;48.466;7.950;2023-05-23T03:30:09;16.40;;;12.63;;
1136;SDS011;557;48.466;7.950;2023-05-23T03:32:57;17.50;;;12.67;;
1136;SDS011;557;48.466;7.950;2023-05-23T03:35:44;15.33;;;12.67;;
1136;SDS011;557;48.466;7.950;2023-05-23T03:38:31;15.97;;;12.43;;
1136;SDS011;557;48.466;7.950;2023-05-23T03:41:18;15.27;;;12.20;;
1136;SDS011;557;48.466;7.950;2023-05-23T03:44:07;15.40;;;12.80;;
1136;SDS011;557;48.466;7.950;2023-05-23T03:46:54;16.17;;;12.53;;
1136;SDS011;557;48.466;7.950;2023-05-23T03:49:42;16.50;;;11.40;;
1136;SDS011;557;48.466;7.950;2023-05-23T03:52:29;15.30;;;11.00;;
1136;SDS011;557;48.466;7.950;2023-05-23T03:55:16;17.40;;;12.57;;
1136;SDS011;557;48.466;7.950;2023-05-23T03:58:06;16.30;;;12.53;;
1136;SDS011;557;48.466;7.950;2023-05-23T04:00:56;19.77;;;13.17;;
1136;SDS011;557;48.466;7.950;2023-05-23T04:03:49;15.57;;;12.10;;
1136;SDS011;557;48.466;7.950;2023-05-23T04:06:38;17.30;;;12.33;;
1136;SDS011;557;48.466;7.950;2023-05-23T04:09:26;20.53;;;13.37;;
1136;SDS011;557;48.466;7.950;2023-05-23T04:12:13;16.57;;;12.47;;
1136;SDS011;557;48.466;7.950;2023-05-23T04:15:00;20.07;;;13.03;;
1136;SDS011;557;48.466;7.950;2023-05-23T04:17:49;20.57;;;14.00;;
1136;SDS011;557;48.466;7.950;2023-05-23T04:20:37;18.30;;;13.73;;
1136;SDS011;557;48.466;7.950;2023-05-23T04:23:24;20.40;;;13.53;;
1136;SDS011;557;48.466;7.950;2023-05-23T04:26:12;18.83;;;14.80;;
1136;SDS011;557;48.466;7.950;2023-05-23T04:28:59;20.30;;;14.63;;
1136;SDS011;557;48.466;7.950;2023-05-23T04:31:46;16.87;;;13.70;;
1136;SDS011;557;48.466;7.950;2023-05-23T04:34:36;17.90;;;13.70;;
1136;SDS011;557;48.466;7.950;2023-05-23T04:37:25;16.17;;;12.50;;
1136;SDS011;557;48.466;7.950;2023-05-23T04:40:13;18.77;;;13.97;;
1136;SDS011;557;48.466;7.950;2023-05-23T04:43:05;20.83;;;13.90;;
1136;SDS011;557;48.466;7.950;2023-05-23T04:45:53;18.80;;;15.67;;
1136;SDS011;557;48.466;7.950;2023-05-23T04:48:42;20.50;;;15.63;;
1136;SDS011;557;48.466;7.950;2023-05-23T04:51:31;18.83;;;13.83;;
1136;SDS011;557;48.466;7.950;2023-05-23T04:54:19;20.33;;;13.37;;
1136;SDS011;557;48.466;7.950;2023-05-23T04:57:07;18.17;;;13.77;;
1136;SDS011;557;48.466;7.950;2023-05-23T04:59:54;20.30;;;14.77;;
1136;SDS011;557;48.466;7.950;2023-05-23T05:02:42;26.77;;;18.63;;
1136;SDS011;557;48.466;7.950;2023-05-23T05:05:29;37.03;;;23.27;;
1136;SDS011;557;48.466;7.950;2023-05-23T05:08:18;38.63;;;24.90;;
1136;SDS011;557;48.466;7.950;2023-05-23T05:11:06;34.50;;;22.43;;
1136;SDS011;557;48.466;7.950;2023-05-23T05:13:54;35.20;;;24.90;;
1136;SDS011;557;48.466;7.950;2023-05-23T05:16:41;34.60;;;23.50;;
1136;SDS011;557;48.466;7.950;2023-05-23T05:19:30;36.80;;;24.63;;
1136;SDS011;557;48.466;7.950;2023-05-23T05:22:18;35.77;;;24.00;;
1136;SDS011;557;48.466;7.950;2023-05-23T05:25:07;33.30;;;22.80;;
1136;SDS011;557;48.466;7.950;2023-05-23T05:27:55;34.67;;;22.53;;
1136;SDS011;557;48.466;7.950;2023-05-23T05:30:48;33.07;;;23.13;;
1136;SDS011;557;48.466;7.950;2023-05-23T05:33:38;35.10;;;21.53;;
1136;SDS011;557;48.466;7.950;2023-05-23T05:36:26;37.83;;;24.63;;
1136;SDS011;557;48.466;7.950;2023-05-23T05:39:13;35.60;;;24.00;;
1136;SDS011;557;48.466;7.950;2023-05-23T05:42:04;35.23;;;25.30;;
1136;SDS011;557;48.466;7.950;2023-05-23T05:44:51;37.33;;;25.20;;
1136;SDS011;557;48.466;7.950;2023-05-23T05:47:38;32.73;;;22.73;;
1136;SDS011;557;48.466;7.950;2023-05-23T05:50:26;31.93;;;22.80;;
1136;SDS011;557;48.466;7.950;2023-05-23T05:53:13;31.60;;;22.70;;
1136;SDS011;557;48.466;7.950;2023-05-23T05:56:00;35.50;;;25.30;;
1136;SDS011;557;48.466;7.950;2023-05-23T05:58:49;33.00;;;24.17;;
1136;SDS011;557;48.466;7.950;2023-05-23T06:01:36;33.17;;;22.80;;
1136;SDS011;557;48.466;7.950;2023-05-23T06:04:24;34.53;;;23.43;;
1136;SDS011;557;48.466;7.950;2023-05-23T06:07:11;31.00;;;21.70;;
1136;SDS011;557;48.466;7.950;2023-05-23T06:09:59;29.07;;;22.07;;
1136;SDS011;557;48.466;7.950;2023-05-23T06:12:46;37.20;;;24.67;;
1136;SDS011;557;48.466;7.950;2023-05-23T06:15:35;33.63;;;23.30;;
1136;SDS011;557;48.466;7.950;2023-05-23T06:18:22;31.80;;;22.90;;
1136;SDS011;557;48.466;7.950;2023-05-23T06:21:10;28.80;;;22.40;;
1136;SDS011;557;48.466;7.950;2023-05-23T06:23:57;29.40;;;20.90;;
1136;SDS011;557;48.466;7.950;2023-05-23T06:26:44;30.10;;;21.70;;
1136;SDS011;557;48.466;7.950;2023-05-23T06:29:32;26.07;;;21.37;;
1136;SDS011;557;48.466;7.950;2023-05-23T06:32:21;33.10;;;24.93;;
1136;SDS011;557;48.466;7.950;2023-05-23T06:35:10;32.57;;;23.60;;
1136;SDS011;557;48.466;7.950;2023-05-23T06:37:57;36.47;;;24.97;;
1136;SDS011;557;48.466;7.950;2023-05-23T06:40:44;31.20;;;24.47;;
1136;SDS011;557;48.466;7.950;2023-05-23T06:43:31;33.37;;;24.27;;
1136;SDS011;557;48.466;7.950;2023-05-23T06:46:19;34.53;;;24.83;;
1136;SDS011;557;48.466;7.950;2023-05-23T06:49:07;32.63;;;22.80;;
1136;SDS011;557;48.466;7.950;2023-05-23T06:51:55;33.53;;;24.90;;
1136;SDS011;557;48.466;7.950;2023-05-23T06:54:44;32.13;;;23.33;;
1136;SDS011;557;48.466;7.950;2023-05-23T06:57:42;33.23;;;23.70;;
1136;SDS011;557;48.466;7.950;2023-05-23T07:00:29;32.40;;;24.67;;
1136;SDS011;557;48.466;7.950;2023-05-23T07:03:20;35.80;;;26.80;;
1136;SDS011;557;48.466;7.950;2023-05-23T07:06:15;30.00;;;23.37;;
1136;SDS011;557;48.466;7.950;2023-05-23T07:09:07;31.60;;;24.23;;
1136;SDS011;557;48.466;7.950;2023-05-23T07:11:56;33.70;;;24.23;;
1136;SDS011;557;48.466;7.950;2023-05-23T07:14:45;34.07;;;24.97;;
1136;SDS011;557;48.466;7.950;2023-05-23T07:17:32;35.80;;;26.37;;
1136;SDS011;557;48.466;7.950;2023-05-23T07:20:20;35.07;;;27.20;;
1136;SDS011;557;48.466;7.950;2023-05-23T07:23:09;33.70;;;24.30;;
1136;SDS011;557;48.466;7.950;2023-05-23T07:25:56;38.00;;;25.87;;
1136;SDS011;557;48.466;7.950;2023-05-23T07:28:44;35.57;;;24.87;;
1136;SDS011;557;48.466;7.950;2023-05-23T07:31:31;36.00;;;26.77;;
1136;SDS011;557;48.466;7.950;2023-05-23T07:34:18;32.40;;;24.80;;
1136;SDS011;557;48.466;7.950;2023-05-23T07:37:06;33.40;;;24.70;;
1136;SDS011;557;48.466;7.950;2023-05-23T07:39:55;32.73;;;25.03;;
1136;SDS011;557;48.466;7.950;2023-05-23T07:42:45;33.77;;;24.97;;
1136;SDS011;557;48.466;7.950;2023-05-23T07:45:36;35.93;;;25.87;;
1136;SDS011;557;48.466;7.950;2023-05-23T07:48:23;33.03;;;24.40;;
1136;SDS011;557;48.466;7.950;2023-05-23T07:51:11;33.43;;;25.70;;
1136;SDS011;557;48.466;7.950;2023-05-23T07:54:00;37.07;;;25.27;;
1136;SDS011;557;48.466;7.950;2023-05-23T07:56:56;30.97;;;24.20;;
1136;SDS011;557;48.466;7.950;2023-05-23T07:59:43;29.03;;;24.17;;
1136;SDS011;557;48.466;7.950;2023-05-23T08:02:31;28.63;;;21.67;;
1136;SDS011;557;48.466;7.950;2023-05-23T08:05:18;29.90;;;23.83;;
1136;SDS011;557;48.466;7.950;2023-05-23T08:08:07;24.07;;;20.03;;
1136;SDS011;557;48.466;7.950;2023-05-23T08:10:54;23.97;;;20.17;;
1136;SDS011;557;48.466;7.950;2023-05-23T08:13:43;27.80;;;21.33;;
1136;SDS011;557;48.466;7.950;2023-05-23T08:16:31;24.37;;;21.47;;
1136;SDS011;557;48.466;7.950;2023-05-23T08:19:19;23.23;;;19.70;;
1136;SDS011;557;48.466;7.950;2023-05-23T08:22:07;22.57;;;19.97;;
1136;SDS011;557;48.466;7.950;2023-05-23T08:24:54;18.67;;;16.87;;
1136;SDS011;557;48.466;7.950;2023-05-23T08:27:41;18.97;;;17.10;;
1136;SDS011;557;48.466;7.950;2023-05-23T08:30:30;18.37;;;16.47;;
1136;SDS011;557;48.466;7.950;2023-05-23T08:33:18;18.77;;;17.00;;
1136;SDS011;557;48.466;7.950;2023-05-23T08:36:05;16.93;;;15.13;;
1136;SDS011;557;48.466;7.950;2023-05-23T08:38:53;18.10;;;16.30;;
1136;SDS011;557;48.466;7.950;2023-05-23T08:41:40;17.57;;;15.87;;
1136;SDS011;557;48.466;7.950;2023-05-23T08:44:28;17.40;;;15.53;;
1136;SDS011;557;48.466;7.950;2023-05-23T08:47:17;18.73;;;16.27;;
1136;SDS011;557;48.466;7.950;2023-05-23T08:50:06;19.40;;;17.40;;
1136;SDS011;557;48.466;7.950;2023-05-23T08:52:56;19.27;;;17.10;;
1136;SDS011;557;48.466;7.950;2023-05-23T08:55:45;20.03;;;17.93;;
1136;SDS011;557;48.466;7.950;2023-05-23T08:58:33;20.90;;;18.20;;
1136;SDS011;557;48.466;7.950;2023-05-23T09:01:27;19.73;;;17.73;;
1136;SDS011;557;48.466;7.950;2023-05-23T09:04:17;21.30;;;19.00;;
1136;SDS011;557;48.466;7.950;2023-05-23T09:07:04;22.07;;;18.27;;
1136;SDS011;557;48.466;7.950;2023-05-23T09:09:53;23.27;;;19.83;;
1136;SDS011;557;48.466;7.950;2023-05-23T09:12:41;21.63;;;19.30;;
1136;SDS011;557;48.466;7.950;2023-05-23T09:15:28;26.10;;;21.30;;
1136;SDS011;557;48.466;7.950;2023-05-23T09:18:16;22.70;;;18.23;;
1136;SDS011;557;48.466;7.950;2023-05-23T09:21:06;21.37;;;19.17;;
1136;SDS011;557;48.466;7.950;2023-05-23T09:23:54;23.20;;;19.83;;
1136;SDS011;557;48.466;7.950;2023-05-23T09:26:42;21.93;;;19.13;;
1136;SDS011;557;48.466;7.950;2023-05-23T09:29:35;20.47;;;18.27;;
1136;SDS011;557;48.466;7.950;2023-05-23T09:32:23;24.63;;;19.03;;
1136;SDS011;557;48.466;7.950;2023-05-23T09:35:11;21.10;;;17.67;;
1136;SDS011;557;48.466;7.950;2023-05-23T09:38:01;19.00;;;16.87;;
1136;SDS011;557;48.466;7.950;2023-05-23T09:40:49;18.20;;;16.20;;
1136;SDS011;557;48.466;7.950;2023-05-23T09:43:48;18.73;;;16.73;;
1136;SDS011;557;48.466;7.950;2023-05-23T09:46:36;16.73;;;14.93;;
1136;SDS011;557;48.466;7.950;2023-05-23T09:49:25;16.77;;;15.07;;
1136;SDS011;557;48.466;7.950;2023-05-23T09:52:12;17.60;;;15.80;;
1136;SDS011;557;48.466;7.950;2023-05-23T09:55:01;17.00;;;15.40;;
1136;SDS011;557;48.466;7.950;2023-05-23T09:57:50;17.30;;;15.60;;
1136;SDS011;557;48.466;7.950;2023-05-23T10:00:41;17.83;;;16.03;;
1136;SDS011;557;48.466;7.950;2023-05-23T10:03:30;17.73;;;16.03;;
1136;SDS011;557;48.466;7.950;2023-05-23T10:06:22;17.50;;;15.80;;
1136;SDS011;557;48.466;7.950;2023-05-23T10:09:12;17.02;;;15.43;;
1136;SDS011;557;48.466;7.950;2023-05-23T10:15:32;16.90;;;15.20;;
1136;SDS011;557;48.466;7.950;2023-05-23T10:21:42;17.47;;;15.83;;
1136;SDS011;557;48.466;7.950;2023-05-23T10:24:34;16.03;;;14.60;;
1136;SDS011;557;48.466;7.950;2023-05-23T10:27:23;15.97;;;14.60;;
1136;SDS011;557;48.466;7.950;2023-05-23T10:30:11;16.80;;;14.73;;
1136;SDS011;557;48.466;7.950;2023-05-23T10:33:01;16.65;;;15.05;;
1136;SDS011;557;48.466;7.950;2023-05-23T10:35:56;16.63;;;15.05;;
1136;SDS011;557;48.466;7.950;2023-05-23T10:38:57;18.60;;;16.70;;
1136;SDS011;557;48.466;7.950;2023-05-23T10:41:50;18.38;;;16.77;;
1136;SDS011;557;48.466;7.950;2023-05-23T10:44:43;19.42;;;17.67;;
1136;SDS011;557;48.466;7.950;2023-05-23T10:47:31;18.63;;;16.95;;
1136;SDS011;557;48.466;7.950;2023-05-23T10:50:33;18.27;;;16.58;;
1136;SDS011;557;48.466;7.950;2023-05-23T10:53:21;18.30;;;16.77;;
1136;SDS011;557;48.466;7.950;2023-05-23T10:56:18;17.90;;;16.23;;
1136;SDS011;557;48.466;7.950;2023-05-23T10:59:06;18.80;;;17.27;;
1136;SDS011;557;48.466;7.950;2023-05-23T11:01:55;19.15;;;17.58;;
1136;SDS011;557;48.466;7.950;2023-05-23T11:04:44;18.10;;;16.50;;
1136;SDS011;557;48.466;7.950;2023-05-23T11:07:34;19.33;;;17.60;;
1136;SDS011;557;48.466;7.950;2023-05-23T11:10:21;19.57;;;17.73;;
1136;SDS011;557;48.466;7.950;2023-05-23T11:13:08;18.70;;;17.10;;
1136;SDS011;557;48.466;7.950;2023-05-23T11:15:56;18.67;;;17.17;;
1136;SDS011;557;48.466;7.950;2023-05-23T11:18:43;17.13;;;15.67;;
1136;SDS011;557;48.466;7.950;2023-05-23T11:21:31;19.27;;;17.63;;
1136;SDS011;557;48.466;7.950;2023-05-23T11:24:20;17.65;;;16.25;;
1136;SDS011;557;48.466;7.950;2023-05-23T11:27:10;16.83;;;15.43;;
1136;SDS011;557;48.466;7.950;2023-05-23T11:30:06;16.63;;;15.20;;
1136;SDS011;557;48.466;7.950;2023-05-23T11:32:55;17.70;;;16.20;;
1136;SDS011;557;48.466;7.950;2023-05-23T11:35:43;16.00;;;14.63;;
1136;SDS011;557;48.466;7.950;2023-05-23T11:38:34;16.37;;;14.80;;
1136;SDS011;557;48.466;7.950;2023-05-23T11:41:23;18.57;;;17.00;;
1136;SDS011;557;48.466;7.950;2023-05-23T11:44:10;17.90;;;16.47;;
1136;SDS011;557;48.466;7.950;2023-05-23T11:46:59;17.50;;;15.97;;
1136;SDS011;557;48.466;7.950;2023-05-23T11:49:47;16.83;;;15.07;;
1136;SDS011;557;48.466;7.950;2023-05-23T11:52:34;17.15;;;15.75;;
1136;SDS011;557;48.466;7.950;2023-05-23T11:55:21;18.45;;;16.65;;
1136;SDS011;557;48.466;7.950;2023-05-23T11:58:10;18.58;;;16.88;;
1136;SDS011;557;48.466;7.950;2023-05-23T12:00:59;17.85;;;16.42;;
1136;SDS011;557;48.466;7.950;2023-05-23T12:03:53;17.20;;;15.88;;
1136;SDS011;557;48.466;7.950;2023-05-23T12:06:40;17.53;;;16.27;;
1136;SDS011;557;48.466;7.950;2023-05-23T12:09:28;17.50;;;16.15;;
1136;SDS011;557;48.466;7.950;2023-05-23T12:12:15;17.93;;;16.43;;
1136;SDS011;557;48.466;7.950;2023-05-23T12:15:07;16.13;;;14.93;;
1136;SDS011;557;48.466;7.950;2023-05-23T12:17:55;17.50;;;16.20;;
1136;SDS011;557;48.466;7.950;2023-05-23T12:20:42;17.00;;;15.80;;
1136;SDS011;557;48.466;7.950;2023-05-23T12:23:30;17.25;;;15.95;;
1136;SDS011;557;48.466;7.950;2023-05-23T12:26:17;16.30;;;15.10;;
1136;SDS011;557;48.466;7.950;2023-05-23T12:29:04;16.73;;;15.27;;
1136;SDS011;557;48.466;7.950;2023-05-23T12:31:53;17.03;;;15.73;;
1136;SDS011;557;48.466;7.950;2023-05-23T12:34:41;14.93;;;13.90;;
1136;SDS011;557;48.466;7.950;2023-05-23T12:37:28;16.63;;;15.33;;
1136;SDS011;557;48.466;7.950;2023-05-23T12:40:16;16.50;;;15.30;;
1136;SDS011;557;48.466;7.950;2023-05-23T12:43:07;16.10;;;14.90;;
1136;SDS011;557;48.466;7.950;2023-05-23T12:45:55;16.92;;;15.52;;
1136;SDS011;557;48.466;7.950;2023-05-23T12:48:44;16.40;;;15.20;;
1136;SDS011;557;48.466;7.950;2023-05-23T12:51:31;16.23;;;15.13;;
1136;SDS011;557;48.466;7.950;2023-05-23T12:54:19;16.23;;;15.02;;
1136;SDS011;557;48.466;7.950;2023-05-23T12:57:06;17.00;;;15.80;;
1136;SDS011;557;48.466;7.950;2023-05-23T12:59:53;16.60;;;15.48;;
1136;SDS011;557;48.466;7.950;2023-05-23T13:02:41;17.35;;;16.15;;
1136;SDS011;557;48.466;7.950;2023-05-23T13:05:29;16.83;;;15.63;;
1136;SDS011;557;48.466;7.950;2023-05-23T13:08:17;17.00;;;15.80;;
1136;SDS011;557;48.466;7.950;2023-05-23T13:11:04;15.93;;;14.82;;
1136;SDS011;557;48.466;7.950;2023-05-23T13:13:52;14.85;;;13.82;;
1136;SDS011;557;48.466;7.950;2023-05-23T13:16:39;17.38;;;16.08;;
1136;SDS011;557;48.466;7.950;2023-05-23T13:19:27;17.55;;;16.25;;
1136;SDS011;557;48.466;7.950;2023-05-23T13:22:18;16.58;;;15.38;;
1136;SDS011;557;48.466;7.950;2023-05-23T13:25:06;17.15;;;16.05;;
1136;SDS011;557;48.466;7.950;2023-05-23T13:27:54;16.52;;;15.52;;
1136;SDS011;557;48.466;7.950;2023-05-23T13:30:41;17.58;;;16.48;;
1136;SDS011;557;48.466;7.950;2023-05-23T13:33:29;17.70;;;16.50;;
1136;SDS011;557;48.466;7.950;2023-05-23T13:36:16;17.30;;;16.15;;
1136;SDS011;557;48.466;7.950;2023-05-23T13:39:05;16.33;;;15.32;;
1136;SDS011;557;48.466;7.950;2023-05-23T13:41:52;17.25;;;16.15;;
1136;SDS011;557;48.466;7.950;2023-05-23T13:44:40;16.73;;;15.65;;
1136;SDS011;557;48.466;7.950;2023-05-23T13:47:31;17.70;;;16.50;;
1136;SDS011;557;48.466;7.950;2023-05-23T13:50:18;16.33;;;15.18;;
1136;SDS011;557;48.466;7.950;2023-05-23T13:53:05;17.55;;;16.35;;
1136;SDS011;557;48.466;7.950;2023-05-23T13:56:01;17.33;;;16.23;;
1136;SDS011;557;48.466;7.950;2023-05-23T13:58:48;17.80;;;16.70;;
1136;SDS011;557;48.466;7.950;2023-05-23T14:01:36;17.25;;;16.15;;
1136;SDS011;557;48.466;7.950;2023-05-23T14:04:23;17.52;;;16.35;;
1136;SDS011;557;48.466;7.950;2023-05-23T14:07:10;17.65;;;16.65;;
1136;SDS011;557;48.466;7.950;2023-05-23T14:09:58;16.45;;;15.45;;
1136;SDS011;557;48.466;7.950;2023-05-23T14:12:46;16.35;;;15.25;;
1136;SDS011;557;48.466;7.950;2023-05-23T14:15:34;17.13;;;16.05;;
1136;SDS011;557;48.466;7.950;2023-05-23T14:18:22;16.55;;;15.55;;
1136;SDS011;557;48.466;7.950;2023-05-23T14:21:10;16.40;;;15.40;;
1136;SDS011;557;48.466;7.950;2023-05-23T14:23:57;15.52;;;14.63;;
1136;SDS011;557;48.466;7.950;2023-05-23T14:26:44;16.50;;;15.50;;
1136;SDS011;557;48.466;7.950;2023-05-23T14:29:33;15.68;;;14.73;;
1136;SDS011;557;48.466;7.950;2023-05-23T14:32:21;15.18;;;14.27;;
1136;SDS011;557;48.466;7.950;2023-05-23T14:35:08;14.80;;;14.00;;
1136;SDS011;557;48.466;7.950;2023-05-23T14:37:56;14.60;;;13.80;;
1136;SDS011;557;48.466;7.950;2023-05-23T14:40:43;15.38;;;14.38;;
1136;SDS011;557;48.466;7.950;2023-05-23T14:43:31;14.40;;;13.60;;
1136;SDS011;557;48.466;7.950;2023-05-23T14:46:20;14.93;;;14.02;;
1136;SDS011;557;48.466;7.950;2023-05-23T14:49:07;15.00;;;14.10;;
1136;SDS011;557;48.466;7.950;2023-05-23T14:51:54;15.13;;;14.27;;
1136;SDS011;557;48.466;7.950;2023-05-23T14:54:42;14.85;;;14.05;;
1136;SDS011;557;48.466;7.950;2023-05-23T14:57:29;14.77;;;13.88;;
1136;SDS011;557;48.466;7.950;2023-05-23T15:00:17;14.13;;;13.32;;
1136;SDS011;557;48.466;7.950;2023-05-23T15:03:06;14.25;;;13.50;;
1136;SDS011;557;48.466;7.950;2023-05-23T15:05:54;14.95;;;14.15;;
1136;SDS011;557;48.466;7.950;2023-05-23T15:08:42;14.70;;;13.90;;
1136;SDS011;557;48.466;7.950;2023-05-23T15:11:31;14.90;;;14.07;;
1136;SDS011;557;48.466;7.950;2023-05-23T15:14:19;14.23;;;13.43;;
1136;SDS011;557;48.466;7.950;2023-05-23T15:17:07;14.77;;;13.98;;
1136;SDS011;557;48.466;7.950;2023-05-23T15:19:56;15.38;;;14.50;;
1136;SDS011;557;48.466;7.950;2023-05-23T15:22:43;15.25;;;14.45;;
1136;SDS011;557;48.466;7.950;2023-05-23T15:25:31;14.63;;;13.73;;
1136;SDS011;557;48.466;7.950;2023-05-23T15:28:19;14.10;;;13.38;;
1136;SDS011;557;48.466;7.950;2023-05-23T15:31:06;14.43;;;13.63;;
1136;SDS011;557;48.466;7.950;2023-05-23T15:33:58;15.00;;;14.18;;
1136;SDS011;557;48.466;7.950;2023-05-23T15:36:47;14.93;;;14.13;;
1136;SDS011;557;48.466;7.950;2023-05-23T15:39:35;14.90;;;14.10;;
1136;SDS011;557;48.466;7.950;2023-05-23T15:42:23;15.05;;;14.25;;
1136;SDS011;557;48.466;7.950;2023-05-23T15:45:10;15.15;;;14.35;;
1136;SDS011;557;48.466;7.950;2023-05-23T15:47:58;15.82;;;14.93;;
1136;SDS011;557;48.466;7.950;2023-05-23T15:50:45;16.00;;;15.10;;
1136;SDS011;557;48.466;7.950;2023-05-23T15:53:34;17.13;;;16.13;;
1136;SDS011;557;48.466;7.950;2023-05-23T15:56:21;16.48;;;15.57;;
1136;SDS011;557;48.466;7.950;2023-05-23T15:59:09;17.10;;;15.88;;
1136;SDS011;557;48.466;7.950;2023-05-23T16:01:57;16.98;;;16.08;;
1136;SDS011;557;48.466;7.950;2023-05-23T16:04:44;17.30;;;16.30;;
1136;SDS011;557;48.466;7.950;2023-05-23T16:07:35;17.30;;;16.40;;
1136;SDS011;557;48.466;7.950;2023-05-23T16:10:25;17.00;;;16.00;;
1136;SDS011;557;48.466;7.950;2023-05-23T16:13:12;17.50;;;16.40;;
1136;SDS011;557;48.466;7.950;2023-05-23T16:16:01;17.52;;;16.52;;
1136;SDS011;557;48.466;7.950;2023-05-23T16:18:49;16.80;;;15.80;;
1136;SDS011;557;48.466;7.950;2023-05-23T16:21:36;16.42;;;15.52;;
1136;SDS011;557;48.466;7.950;2023-05-23T16:24:24;15.55;;;14.75;;
1136;SDS011;557;48.466;7.950;2023-05-23T16:27:14;15.70;;;14.80;;
1136;SDS011;557;48.466;7.950;2023-05-23T16:30:02;15.57;;;14.65;;
1136;SDS011;557;48.466;7.950;2023-05-23T16:32:50;16.40;;;15.40;;
1136;SDS011;557;48.466;7.950;2023-05-23T16:35:38;15.80;;;14.80;;
1136;SDS011;557;48.466;7.950;2023-05-23T16:38:25;15.43;;;14.63;;
1136;SDS011;557;48.466;7.950;2023-05-23T16:41:13;14.95;;;14.15;;
1136;SDS011;557;48.466;7.950;2023-05-23T16:44:02;15.93;;;14.80;;
1136;SDS011;557;48.466;7.950;2023-05-23T16:46:49;14.87;;;14.00;;
1136;SDS011;557;48.466;7.950;2023-05-23T16:49:37;14.30;;;13.50;;
1136;SDS011;557;48.466;7.950;2023-05-23T16:52:25;15.30;;;14.40;;
1136;SDS011;557;48.466;7.950;2023-05-23T16:55:12;15.23;;;14.33;;
1136;SDS011;557;48.466;7.950;2023-05-23T16:58:00;14.70;;;13.90;;
1136;SDS011;557;48.466;7.950;2023-05-23T17:00:48;14.17;;;13.37;;
1136;SDS011;557;48.466;7.950;2023-05-23T17:03:36;15.50;;;14.40;;
1136;SDS011;557;48.466;7.950;2023-05-23T17:06:23;14.93;;;14.13;;
1136;SDS011;557;48.466;7.950;2023-05-23T17:09:11;15.70;;;14.70;;
1136;SDS011;557;48.466;7.950;2023-05-23T17:11:58;15.60;;;14.70;;
1136;SDS011;557;48.466;7.950;2023-05-23T17:14:45;15.97;;;14.97;;
1136;SDS011;557;48.466;7.950;2023-05-23T17:17:34;15.57;;;14.67;;
1136;SDS011;557;48.466;7.950;2023-05-23T17:20:22;15.00;;;14.20;;